createdAt,value
2024-03-09T00:00:44.461Z,90.00
2024-03-09T00:03:14.005Z,90.20
2024-03-09T00:05:41.928Z,90.30
2024-03-09T00:08:11.269Z,91.60
2024-03-09T00:10:39.630Z,90.70
2024-03-09T00:13:11.266Z,91.10
2024-03-09T00:15:39.134Z,90.60
2024-03-09T00:18:07.363Z,91.60
2024-03-09T00:20:37.590Z,91.40
2024-03-09T00:23:09.368Z,91.50
2024-03-09T00:25:38.715Z,91.50
2024-03-09T00:28:07.222Z,91.80
2024-03-09T00:30:36.603Z,92.40
2024-03-09T00:33:07.843Z,92.40
2024-03-09T00:35:36.623Z,93.20
2024-03-09T00:38:05.662Z,93.40
2024-03-09T00:40:34.033Z,93.40
2024-03-09T00:43:08.470Z,94.80
2024-03-09T00:45:36.133Z,96.90
2024-03-09T00:48:05.216Z,98.50
2024-03-09T00:50:33.390Z,99.60
2024-03-09T00:53:00.841Z,99.90
2024-03-09T00:55:28.595Z,99.90
2024-03-09T00:57:57.369Z,99.90
2024-03-09T01:00:25.720Z,99.90
2024-03-09T01:02:54.111Z,99.90
2024-03-09T01:05:24.903Z,99.90
2024-03-09T01:07:53.252Z,99.90
2024-03-09T01:10:21.156Z,99.90
2024-03-09T01:12:49.374Z,99.90
2024-03-09T01:15:17.039Z,99.90
2024-03-09T01:17:44.468Z,99.90
2024-03-09T01:20:14.298Z,99.90
2024-03-09T01:22:45.614Z,99.90
2024-03-09T01:25:13.897Z,99.90
2024-03-09T01:27:41.831Z,99.90
2024-03-09T01:30:11.666Z,99.90
2024-03-09T01:32:45.442Z,99.90
2024-03-09T01:35:14.770Z,99.90
2024-03-09T01:37:42.732Z,99.90
2024-03-09T01:40:12.170Z,99.90
2024-03-09T01:42:39.403Z,99.90
2024-03-09T01:45:08.291Z,99.90
2024-03-09T01:47:36.373Z,99.90
2024-03-09T01:50:05.975Z,99.90
2024-03-09T01:52:34.728Z,99.90
2024-03-09T01:55:09.523Z,99.90
2024-03-09T01:57:38.346Z,99.90
2024-03-09T02:00:11.650Z,99.90
2024-03-09T02:02:39.604Z,99.90
2024-03-09T02:05:14.320Z,99.90
2024-03-09T02:07:42.223Z,99.90
2024-03-09T02:10:13.282Z,99.90
2024-03-09T02:12:45.541Z,99.90
2024-03-09T02:15:17.406Z,99.90
2024-03-09T02:17:48.725Z,99.90
2024-03-09T02:20:18.176Z,99.90
2024-03-09T02:22:48.073Z,99.90
2024-03-09T02:25:16.753Z,99.90
2024-03-09T02:27:44.433Z,99.90
2024-03-09T02:30:13.331Z,99.90
2024-03-09T02:32:43.566Z,99.90
2024-03-09T02:35:11.320Z,99.90
2024-03-09T02:37:40.777Z,99.90
2024-03-09T02:40:11.402Z,99.90
2024-03-09T02:43:01.565Z,99.90
2024-03-09T02:45:29.323Z,99.90
2024-03-09T02:47:57.316Z,99.90
2024-03-09T02:50:27.962Z,99.90
2024-03-09T02:52:56.211Z,99.90
2024-03-09T02:55:25.027Z,99.90
2024-03-09T02:57:52.575Z,99.90
2024-03-09T03:00:27.292Z,99.90
2024-03-09T03:03:13.688Z,99.90
2024-03-09T03:05:45.502Z,99.90
2024-03-09T03:08:13.280Z,99.90
2024-03-09T03:10:42.080Z,99.90
2024-03-09T03:13:09.622Z,99.90
2024-03-09T03:15:39.091Z,99.90
2024-03-09T03:18:09.982Z,99.90
2024-03-09T03:20:37.462Z,99.90
2024-03-09T03:23:05.703Z,99.90
2024-03-09T03:25:33.016Z,99.90
2024-03-09T03:28:00.192Z,99.90
2024-03-09T03:30:27.625Z,99.90
2024-03-09T03:32:56.089Z,99.90
2024-03-09T03:35:26.142Z,99.90
2024-03-09T03:38:00.393Z,99.90
2024-03-09T03:40:28.001Z,99.90
2024-03-09T03:42:55.316Z,99.90
2024-03-09T03:45:22.599Z,99.90
2024-03-09T03:47:50.263Z,99.90
2024-03-09T03:50:17.491Z,99.90
2024-03-09T03:52:44.718Z,99.90
2024-03-09T03:55:15.294Z,99.90
2024-03-09T03:57:44.169Z,99.90
2024-03-09T04:00:13.659Z,99.90
2024-03-09T04:02:42.618Z,99.90
2024-03-09T04:05:10.488Z,99.90
2024-03-09T04:07:38.280Z,99.90
2024-03-09T04:10:13.240Z,99.90
2024-03-09T04:12:42.207Z,99.90
2024-03-09T04:15:10.953Z,99.90
2024-03-09T04:17:38.384Z,99.90
2024-03-09T04:20:06.926Z,99.90
2024-03-09T04:22:35.446Z,99.90
2024-03-09T04:25:03.238Z,99.90
2024-03-09T04:27:33.481Z,99.90
2024-03-09T04:30:00.634Z,99.90
2024-03-09T04:32:28.640Z,99.90
2024-03-09T04:34:56.211Z,99.90
2024-03-09T04:37:26.746Z,99.90
2024-03-09T04:39:55.986Z,99.90
2024-03-09T04:42:26.315Z,99.90
2024-03-09T04:44:54.128Z,99.90
2024-03-09T04:47:23.649Z,99.90
2024-03-09T04:49:51.129Z,99.90
2024-03-09T04:52:18.531Z,99.90
2024-03-09T04:54:45.742Z,99.90
2024-03-09T04:57:18.574Z,99.90
2024-03-09T04:59:45.883Z,99.90
2024-03-09T05:02:13.204Z,99.90
2024-03-09T05:04:40.838Z,99.90
2024-03-09T05:07:08.110Z,99.90
2024-03-09T05:09:38.206Z,99.90
2024-03-09T05:12:05.980Z,99.90
2024-03-09T05:14:33.287Z,99.90
2024-03-09T05:17:00.749Z,99.90
2024-03-09T05:19:27.970Z,99.90
2024-03-09T05:21:55.287Z,99.90
2024-03-09T05:24:23.381Z,99.90
2024-03-09T05:26:50.580Z,99.90
2024-03-09T05:29:18.972Z,99.90
2024-03-09T05:31:46.143Z,99.90
2024-03-09T05:34:13.374Z,99.90
2024-03-09T05:36:40.528Z,99.90
2024-03-09T05:39:07.863Z,99.90
2024-03-09T05:41:37.419Z,99.90
2024-03-09T05:44:04.926Z,99.90
2024-03-09T05:46:34.041Z,99.90
2024-03-09T05:49:01.490Z,99.90
2024-03-09T05:51:31.173Z,99.90
2024-03-09T05:53:59.963Z,99.90
2024-03-09T05:56:27.201Z,99.90
2024-03-09T05:58:54.484Z,99.90
2024-03-09T06:01:28.440Z,99.90
2024-03-09T06:03:56.029Z,99.90
2024-03-09T06:06:24.604Z,99.90
2024-03-09T06:08:52.140Z,99.90
2024-03-09T06:11:20.145Z,99.90
2024-03-09T06:13:48.586Z,99.90
2024-03-09T06:16:18.299Z,99.90
2024-03-09T06:18:51.549Z,99.90
2024-03-09T06:21:18.826Z,99.90
2024-03-09T06:23:47.264Z,99.90
2024-03-09T06:26:14.581Z,99.90
2024-03-09T06:28:43.655Z,99.90
2024-03-09T06:31:12.246Z,99.90
2024-03-09T06:33:39.446Z,99.90
2024-03-09T06:36:08.329Z,99.90
2024-03-09T06:38:38.610Z,99.90
2024-03-09T06:41:06.190Z,99.90
2024-03-09T06:43:33.463Z,99.90
2024-03-09T06:46:01.726Z,99.90
2024-03-09T06:48:31.653Z,99.90
2024-03-09T06:51:00.243Z,99.90
2024-03-09T06:53:28.733Z,99.90
2024-03-09T06:55:56.012Z,99.90
2024-03-09T06:58:23.137Z,99.90
2024-03-09T07:00:50.558Z,99.90
2024-03-09T07:03:17.874Z,99.90
2024-03-09T07:05:46.757Z,99.90
2024-03-09T07:08:17.897Z,99.90
2024-03-09T07:10:45.642Z,99.90
2024-03-09T07:13:12.807Z,99.90
2024-03-09T07:15:42.419Z,99.90
2024-03-09T07:18:12.754Z,99.90
2024-03-09T07:20:40.666Z,99.90
2024-03-09T07:23:07.914Z,99.90
2024-03-09T07:25:36.060Z,99.90
2024-03-09T07:28:03.229Z,99.90
2024-03-09T07:30:34.646Z,99.90
2024-03-09T07:33:02.769Z,99.90
2024-03-09T07:35:31.314Z,99.90
2024-03-09T07:38:01.092Z,99.90
2024-03-09T07:40:38.115Z,99.90
2024-03-09T07:43:07.027Z,99.90
2024-03-09T07:45:34.984Z,99.90
2024-03-09T07:48:02.926Z,99.90
2024-03-09T07:50:30.369Z,99.90
2024-03-09T07:52:59.183Z,99.90
2024-03-09T07:55:28.471Z,99.90
2024-03-09T07:58:09.344Z,99.90
2024-03-09T08:00:46.687Z,99.90
2024-03-09T08:03:14.987Z,99.90
2024-03-09T08:05:43.053Z,99.90
2024-03-09T08:08:12.153Z,99.90
2024-03-09T08:10:49.418Z,99.90
2024-03-09T08:13:20.616Z,99.90
2024-03-09T08:15:47.869Z,99.90
2024-03-09T08:18:15.705Z,99.90
2024-03-09T08:20:43.102Z,99.90
2024-03-09T08:23:10.554Z,99.90
2024-03-09T08:25:38.129Z,99.90
2024-03-09T08:28:06.643Z,99.90
2024-03-09T08:30:34.151Z,99.90
2024-03-09T08:33:01.668Z,99.90
2024-03-09T08:35:31.060Z,99.90
2024-03-09T08:37:58.773Z,99.90
2024-03-09T08:40:32.282Z,99.90
2024-03-09T08:43:00.162Z,99.90
2024-03-09T08:45:28.818Z,99.90
2024-03-09T08:47:56.622Z,99.90
2024-03-09T08:50:28.860Z,99.90
2024-03-09T08:53:00.649Z,99.90
2024-03-09T08:55:28.971Z,99.90
2024-03-09T08:57:56.307Z,99.90
2024-03-09T09:00:26.897Z,99.90
2024-03-09T09:02:57.814Z,99.90
2024-03-09T09:05:28.885Z,99.90
2024-03-09T09:07:57.736Z,99.90
2024-03-09T09:10:26.779Z,99.90
2024-03-09T09:12:55.658Z,99.90
2024-03-09T09:15:26.101Z,99.90
2024-03-09T09:17:55.198Z,99.90
2024-03-09T09:20:23.477Z,99.90
2024-03-09T09:22:52.227Z,99.20
2024-03-09T09:25:28.215Z,98.40
2024-03-09T09:27:58.336Z,96.30
2024-03-09T09:30:27.805Z,94.50
2024-03-09T09:32:55.860Z,94.80
2024-03-09T09:35:23.417Z,90.50
2024-03-09T09:37:50.730Z,92.50
2024-03-09T09:40:21.405Z,91.30
2024-03-09T09:42:50.073Z,90.20
2024-03-09T09:45:24.147Z,88.10
2024-03-09T09:47:51.875Z,87.00
2024-03-09T09:50:22.548Z,86.80
2024-03-09T09:52:52.222Z,85.80
2024-03-09T09:55:23.072Z,84.70
2024-03-09T09:57:53.252Z,85.30
2024-03-09T10:00:24.871Z,85.00
2024-03-09T10:03:00.040Z,84.40
2024-03-09T10:05:30.650Z,84.60
2024-03-09T10:08:06.286Z,84.70
2024-03-09T10:10:38.072Z,84.40
2024-03-09T10:13:20.880Z,84.20
2024-03-09T10:15:52.321Z,81.60
2024-03-09T10:18:21.373Z,80.30
2024-03-09T10:20:51.378Z,81.50
2024-03-09T10:23:20.662Z,82.80
2024-03-09T10:25:49.128Z,82.80
2024-03-09T10:28:16.687Z,80.90
2024-03-09T10:30:44.597Z,80.50
2024-03-09T10:33:13.414Z,80.50
2024-03-09T10:35:47.979Z,78.00
2024-03-09T10:38:20.500Z,79.00
2024-03-09T10:40:49.872Z,79.30
2024-03-09T10:43:19.112Z,80.40
2024-03-09T10:46:01.570Z,79.40
2024-03-09T10:48:30.573Z,81.70
2024-03-09T10:51:15.862Z,80.30
2024-03-09T10:53:49.203Z,78.50
2024-03-09T10:56:23.575Z,77.60
2024-03-09T10:58:52.566Z,78.40
2024-03-09T11:01:24.961Z,79.00
2024-03-09T11:03:53.418Z,79.10
2024-03-09T11:06:23.252Z,76.90
2024-03-09T11:08:54.684Z,77.50
2024-03-09T11:11:25.014Z,74.30
2024-03-09T11:13:52.968Z,73.30
2024-03-09T11:16:25.091Z,71.40
2024-03-09T11:18:58.069Z,70.50
2024-03-09T11:21:35.495Z,70.70
2024-03-09T11:24:12.901Z,71.50
2024-03-09T11:26:53.508Z,70.40
2024-03-09T11:29:40.202Z,69.00
2024-03-09T11:32:13.567Z,69.60
2024-03-09T11:34:42.932Z,69.50
2024-03-09T11:37:14.601Z,69.80
2024-03-09T11:39:47.327Z,69.40
2024-03-09T11:42:19.547Z,66.70
2024-03-09T11:44:46.777Z,68.00
2024-03-09T11:47:14.012Z,67.60
2024-03-09T11:49:41.842Z,66.00
2024-03-09T11:52:13.033Z,65.50
2024-03-09T11:54:41.401Z,63.80
2024-03-09T11:57:09.941Z,64.30
2024-03-09T11:59:37.341Z,63.90
2024-03-09T12:02:08.499Z,64.70
2024-03-09T12:04:36.652Z,64.00
2024-03-09T12:07:10.405Z,62.90
2024-03-09T12:09:45.647Z,63.80
2024-03-09T12:12:14.863Z,62.50
2024-03-09T12:14:46.000Z,61.90
2024-03-09T12:17:14.037Z,62.90
2024-03-09T12:19:43.649Z,64.40
2024-03-09T12:22:12.021Z,64.40
2024-03-09T12:24:39.252Z,61.20
2024-03-09T12:27:09.384Z,61.90
2024-03-09T12:29:38.066Z,59.40
2024-03-09T12:32:06.651Z,60.60
2024-03-09T12:34:33.947Z,59.40
2024-03-09T12:37:01.283Z,59.40
2024-03-09T12:39:31.565Z,60.40
2024-03-09T12:41:58.820Z,58.90
2024-03-09T12:44:26.505Z,59.40
2024-03-09T12:46:55.967Z,59.00
2024-03-09T12:49:23.611Z,60.40
2024-03-09T12:51:52.365Z,61.30
2024-03-09T12:54:21.034Z,59.90
2024-03-09T12:56:50.742Z,59.70
2024-03-09T12:59:27.223Z,59.70
2024-03-09T13:01:55.487Z,59.90
2024-03-09T13:04:27.497Z,59.70
2024-03-09T13:06:58.354Z,58.50
2024-03-09T13:09:34.008Z,58.70
2024-03-09T13:12:06.558Z,57.50
2024-03-09T13:14:38.580Z,58.10
2024-03-09T13:17:07.729Z,59.20
2024-03-09T13:19:38.462Z,57.50
2024-03-09T13:22:07.938Z,57.60
2024-03-09T13:24:35.787Z,57.20
2024-03-09T13:27:03.484Z,57.20
2024-03-09T13:29:31.440Z,57.50
2024-03-09T13:32:00.118Z,56.90
2024-03-09T13:34:32.300Z,57.30
2024-03-09T13:37:00.936Z,56.70
2024-03-09T13:39:35.584Z,56.70
2024-03-09T13:42:09.958Z,57.30
2024-03-09T13:44:38.168Z,56.00
2024-03-09T13:47:06.624Z,55.20
2024-03-09T13:49:34.517Z,55.90
2024-03-09T13:52:01.879Z,54.90
2024-03-09T13:54:30.376Z,54.90
2024-03-09T13:56:57.591Z,53.90
2024-03-09T13:59:25.438Z,53.60
2024-03-09T14:01:52.765Z,54.50
2024-03-09T14:04:22.548Z,54.90
2024-03-09T14:07:03.091Z,53.60
2024-03-09T14:09:46.473Z,54.00
2024-03-09T14:12:17.035Z,54.40
2024-03-09T14:14:44.273Z,53.30
2024-03-09T14:17:12.149Z,53.70
2024-03-09T14:19:40.621Z,54.20
2024-03-09T14:22:12.303Z,53.90
2024-03-09T14:24:40.015Z,54.10
2024-03-09T14:27:10.270Z,53.80
2024-03-09T14:29:37.850Z,53.70
2024-03-09T14:32:07.790Z,54.20
2024-03-09T14:34:36.307Z,54.40
2024-03-09T14:37:03.969Z,53.40
2024-03-09T14:39:31.916Z,53.10
2024-03-09T14:41:59.279Z,53.30
2024-03-09T14:44:28.558Z,53.60
2024-03-09T14:46:56.181Z,52.80
2024-03-09T14:49:23.633Z,51.40
2024-03-09T14:51:50.855Z,53.20
2024-03-09T14:54:21.027Z,52.80
2024-03-09T14:56:49.298Z,52.40
2024-03-09T14:59:17.208Z,51.80
2024-03-09T15:01:48.179Z,53.20
2024-03-09T15:04:16.376Z,52.50
2024-03-09T15:06:43.659Z,53.00
2024-03-09T15:09:21.764Z,55.20
2024-03-09T15:11:53.547Z,53.80
2024-03-09T15:14:24.357Z,53.80
2024-03-09T15:16:53.717Z,52.80
2024-03-09T15:19:24.830Z,52.10
2024-03-09T15:21:52.132Z,51.10
2024-03-09T15:24:19.887Z,51.70
2024-03-09T15:26:47.239Z,52.50
2024-03-09T15:29:17.101Z,52.40
2024-03-09T15:31:44.675Z,52.30
2024-03-09T15:34:14.663Z,52.90
2024-03-09T15:36:42.215Z,53.20
2024-03-09T15:39:14.572Z,52.50
2024-03-09T15:41:43.632Z,52.60
2024-03-09T15:44:10.989Z,52.50
2024-03-09T15:46:38.392Z,52.90
2024-03-09T15:49:07.548Z,53.90
2024-03-09T15:51:36.997Z,53.30
2024-03-09T15:54:05.216Z,53.10
2024-03-09T15:56:34.926Z,53.50
2024-03-09T15:59:05.735Z,53.30
2024-03-09T16:01:36.724Z,52.70
2024-03-09T16:04:11.245Z,53.60
2024-03-09T16:06:38.993Z,54.20
2024-03-09T16:09:13.285Z,54.20
2024-03-09T16:11:42.529Z,54.70
2024-03-09T16:14:13.494Z,53.70
2024-03-09T16:16:41.688Z,53.30
2024-03-09T16:19:08.955Z,52.60
2024-03-09T16:21:38.651Z,52.90
2024-03-09T16:24:08.404Z,53.00
2024-03-09T16:26:36.102Z,53.20
2024-03-09T16:29:03.655Z,53.70
2024-03-09T16:31:36.700Z,54.10
2024-03-09T16:34:07.900Z,53.90
2024-03-09T16:36:35.683Z,54.60
2024-03-09T16:39:04.521Z,54.90
2024-03-09T16:41:32.185Z,54.60
2024-03-09T16:43:59.551Z,55.50
2024-03-09T16:46:27.926Z,56.00
2024-03-09T16:48:55.240Z,56.50
2024-03-09T16:51:22.614Z,56.40
2024-03-09T16:53:54.481Z,56.70
2024-03-09T16:56:22.071Z,57.00
2024-03-09T16:58:50.169Z,56.80
2024-03-09T17:01:17.750Z,57.40
2024-03-09T17:03:45.216Z,58.20
2024-03-09T17:06:16.996Z,58.30
2024-03-09T17:08:45.518Z,58.60
2024-03-09T17:11:15.637Z,58.70
2024-03-09T17:13:48.255Z,58.80
2024-03-09T17:16:18.819Z,59.30
2024-03-09T17:18:50.198Z,58.80
2024-03-09T17:21:18.378Z,59.20
2024-03-09T17:23:46.775Z,58.70
2024-03-09T17:26:21.329Z,59.10
2024-03-09T17:28:52.432Z,58.90
2024-03-09T17:31:21.159Z,59.50
2024-03-09T17:33:48.404Z,60.20
2024-03-09T17:36:18.211Z,61.30
2024-03-09T17:38:48.345Z,62.20
2024-03-09T17:41:16.158Z,62.90
2024-03-09T17:43:44.121Z,63.00
2024-03-09T17:46:11.432Z,63.70
2024-03-09T17:48:38.584Z,63.10
2024-03-09T17:51:11.167Z,63.70
2024-03-09T17:53:38.610Z,64.30
2024-03-09T17:56:07.582Z,64.60
2024-03-09T17:58:35.143Z,65.40
2024-03-09T18:01:06.100Z,64.70
2024-03-09T18:03:33.522Z,64.80
2024-03-09T18:06:01.213Z,64.80
2024-03-09T18:08:30.643Z,65.40
2024-03-09T18:10:57.812Z,65.00
2024-03-09T18:13:30.421Z,65.30
2024-03-09T18:16:02.823Z,65.90
2024-03-09T18:18:31.350Z,65.70
2024-03-09T18:21:02.041Z,66.00
2024-03-09T18:23:32.201Z,66.10
2024-03-09T18:25:59.450Z,66.00
2024-03-09T18:28:27.195Z,66.40
2024-03-09T18:30:54.419Z,66.40
2024-03-09T18:33:21.685Z,66.90
2024-03-09T18:36:11.888Z,67.20
2024-03-09T18:38:40.989Z,67.10
2024-03-09T18:41:11.224Z,67.40
2024-03-09T18:43:39.019Z,67.90
2024-03-09T18:46:09.865Z,68.90
2024-03-09T18:48:37.136Z,69.40
2024-03-09T18:51:04.764Z,69.30
2024-03-09T18:53:33.495Z,69.80
2024-03-09T18:56:00.994Z,69.90
2024-03-09T18:58:28.209Z,69.80
2024-03-09T19:00:55.653Z,69.40
2024-03-09T19:03:22.916Z,68.90
2024-03-09T19:05:51.095Z,69.20
2024-03-09T19:08:18.623Z,69.30
2024-03-09T19:10:46.710Z,69.80
2024-03-09T19:13:15.427Z,70.00
2024-03-09T19:15:43.393Z,70.40
2024-03-09T19:18:10.691Z,71.00
2024-03-09T19:20:39.732Z,70.60
2024-03-09T19:23:07.195Z,70.70
2024-03-09T19:25:34.574Z,71.40
2024-03-09T19:28:01.892Z,71.00
2024-03-09T19:30:30.302Z,70.60
2024-03-09T19:32:58.546Z,70.40
2024-03-09T19:35:30.279Z,71.20
2024-03-09T19:38:02.068Z,70.80
2024-03-09T19:40:29.985Z,71.60
2024-03-09T19:42:59.324Z,71.20
2024-03-09T19:45:31.383Z,71.10
2024-03-09T19:47:59.527Z,71.50
2024-03-09T19:50:27.496Z,71.50
2024-03-09T19:52:55.320Z,71.70
2024-03-09T19:55:25.254Z,72.00
2024-03-09T19:57:53.585Z,72.20
2024-03-09T20:00:24.097Z,72.30
2024-03-09T20:02:53.640Z,72.20
2024-03-09T20:05:23.354Z,72.60
2024-03-09T20:07:58.324Z,72.60
2024-03-09T20:10:27.382Z,72.70
2024-03-09T20:12:55.210Z,72.80
2024-03-09T20:15:23.859Z,72.40
2024-03-09T20:17:53.457Z,73.10
2024-03-09T20:20:25.586Z,73.50
2024-03-09T20:22:55.548Z,73.30
2024-03-09T20:25:24.422Z,72.20
2024-03-09T20:27:52.781Z,72.00
2024-03-09T20:30:21.426Z,71.80
2024-03-09T20:32:50.498Z,72.30
2024-03-09T20:35:21.593Z,71.70
2024-03-09T20:37:49.732Z,72.60
2024-03-09T20:40:19.110Z,72.60
2024-03-09T20:42:50.170Z,72.50
2024-03-09T20:45:19.283Z,73.00
2024-03-09T20:47:48.421Z,73.00
2024-03-09T20:50:21.215Z,73.20
2024-03-09T20:52:54.504Z,73.00
2024-03-09T20:55:25.295Z,73.40
2024-03-09T20:57:52.713Z,73.40
2024-03-09T21:00:23.720Z,74.00
2024-03-09T21:02:52.302Z,74.50
2024-03-09T21:05:19.966Z,74.80
2024-03-09T21:07:47.601Z,74.90
2024-03-09T21:10:15.027Z,75.20
2024-03-09T21:12:42.727Z,75.20
2024-03-09T21:15:10.752Z,75.20
2024-03-09T21:17:38.409Z,75.50
2024-03-09T21:20:13.251Z,75.60
2024-03-09T21:22:44.821Z,75.50
2024-03-09T21:25:13.241Z,75.90
2024-03-09T21:27:44.183Z,76.60
2024-03-09T21:30:15.679Z,76.40
2024-03-09T21:32:47.520Z,77.90
2024-03-09T21:35:16.365Z,77.00
2024-03-09T21:37:45.666Z,78.30
2024-03-09T21:40:14.825Z,78.90
2024-03-09T21:42:46.028Z,80.20
2024-03-09T21:45:15.234Z,83.10
2024-03-09T21:47:50.039Z,83.10
2024-03-09T21:50:22.848Z,85.90
2024-03-09T21:52:52.262Z,84.70
2024-03-09T21:55:20.220Z,83.00
2024-03-09T21:57:48.310Z,83.80
2024-03-09T22:00:22.239Z,84.60
2024-03-09T22:02:52.723Z,84.70
2024-03-09T22:05:20.948Z,84.30
2024-03-09T22:07:49.290Z,83.90
2024-03-09T22:10:18.865Z,83.10
2024-03-09T22:12:47.027Z,84.50
2024-03-09T22:15:14.492Z,84.70
2024-03-09T22:17:41.953Z,84.50
2024-03-09T22:20:13.981Z,82.90
2024-03-09T22:22:51.722Z,83.20
2024-03-09T22:25:20.630Z,83.40
2024-03-09T22:27:48.897Z,83.20
2024-03-09T22:30:17.289Z,82.40
2024-03-09T22:32:45.285Z,80.70
2024-03-09T22:35:16.315Z,81.80
2024-03-09T22:37:45.520Z,80.10
2024-03-09T22:40:16.805Z,80.80
2024-03-09T22:42:45.409Z,80.70
2024-03-09T22:45:16.257Z,81.40
2024-03-09T22:47:46.370Z,82.20
2024-03-09T22:50:24.599Z,82.00
2024-03-09T22:52:54.404Z,81.60
2024-03-09T22:55:22.143Z,82.00
2024-03-09T22:57:49.487Z,82.40
2024-03-09T23:00:25.775Z,82.70
2024-03-09T23:02:53.258Z,82.70
2024-03-09T23:05:21.389Z,83.00
2024-03-09T23:07:48.700Z,82.90
2024-03-09T23:10:15.944Z,82.90
2024-03-09T23:12:46.279Z,83.00
2024-03-09T23:15:17.269Z,82.80
2024-03-09T23:17:45.968Z,82.90
2024-03-09T23:20:14.260Z,83.00
2024-03-09T23:22:46.280Z,83.00
2024-03-09T23:25:16.321Z,82.80
2024-03-09T23:27:49.177Z,82.70
2024-03-09T23:30:18.667Z,82.30
2024-03-09T23:32:50.461Z,80.60
2024-03-09T23:35:19.389Z,81.10
2024-03-09T23:37:50.295Z,81.40
2024-03-09T23:40:21.152Z,81.60
2024-03-09T23:42:49.299Z,80.40
2024-03-09T23:45:17.117Z,80.30
2024-03-09T23:47:51.638Z,80.80
2024-03-09T23:50:21.043Z,79.30
2024-03-09T23:52:49.589Z,80.00
2024-03-09T23:55:18.856Z,79.50
2024-03-09T23:57:48.726Z,79.60
